Time;durP1;ratioP1;P1;durP2;ratioP2;P2;SDS_P1;SDS_P2;PMS_P1;PMS_P2;Temp;Humidity;BMP_temperature;BMP_pressure;BME280_temperature;BME280_humidity;BME280_pressure;Samples;Min_cycle;Max_cycle;Signal;HPM_P1;HPM_P2
2022/08/24 00:01:15;;;;;;;6.17;4.75;;;;;;;21.69;52.21;100611.08;1769938;80;21255;-67
2022/08/24 00:03:43;;;;;;;6.72;4.72;;;;;;;21.69;52.31;100623.29;1764572;80;21345;-68
2022/08/24 00:06:15;;;;;;;4.60;4.35;;;;;;;21.66;51.86;100624.63;1751699;80;21093;-71
2022/08/24 00:08:42;;;;;;;3.30;3.05;;;;;;;21.64;52.04;100621.33;1696552;83;21030;-68
2022/08/24 00:11:08;;;;;;;6.55;4.10;;;;;;;21.61;51.61;100630.53;1677833;83;21006;-68
2022/08/24 00:13:37;;;;;;;10.05;4.60;;;;;;;21.52;51.74;100621.48;1661107;85;21475;-69
2022/08/24 00:16:06;;;;;;;5.85;5.20;;;;;;;21.57;51.92;100632.39;1667415;85;21033;-68
2022/08/24 00:18:35;;;;;;;4.50;4.10;;;;;;;21.56;51.86;100636.70;1655299;85;21034;-67
2022/08/24 00:21:03;;;;;;;9.48;6.45;;;;;;;21.53;51.73;100638.05;1722294;82;21529;-68
2022/08/24 00:23:29;;;;;;;7.08;4.90;;;;;;;21.50;51.61;100639.90;1720023;81;21025;-68
2022/08/24 00:25:56;;;;;;;7.65;4.55;;;;;;;21.48;51.68;100638.52;1675889;84;21151;-68
2022/08/24 00:28:24;;;;;;;6.60;4.87;;;;;;;21.45;51.88;100642.55;1685554;83;21096;-69
2022/08/24 00:30:51;;;;;;;5.72;5.22;;;;;;;21.43;51.91;100640.59;1720617;81;21028;-68
2022/08/24 00:33:20;;;;;;;4.42;4.08;;;;;;;21.40;51.94;100646.55;1731663;81;21096;-68
2022/08/24 00:35:46;;;;;;;4.33;3.75;;;;;;;21.36;52.06;100650.29;1761344;80;21534;-68
2022/08/24 00:38:13;;;;;;;8.83;4.67;;;;;;;21.33;52.13;100649.43;1763182;80;21041;-71
2022/08/24 00:40:45;;;;;;;6.10;4.60;;;;;;;21.28;52.08;100648.00;1767380;80;20998;-73
2022/08/24 00:43:19;;;;;;;4.37;4.08;;;;;;;21.27;52.10;100650.98;1759313;80;21021;-67
2022/08/24 00:46:06;;;;;;;6.58;4.87;;;;;;;21.23;52.50;100651.19;1748139;80;21535;-68
2022/08/24 00:48:38;;;;;;;7.10;4.47;;;;;;;21.16;52.39;100656.27;1729464;81;21073;-67
2022/08/24 00:51:19;;;;;;;6.80;4.72;;;;;;;21.13;52.06;100655.94;1715925;81;21062;-68
2022/08/24 00:53:53;;;;;;;5.95;4.45;;;;;;;21.08;52.36;100654.00;1733855;81;21118;-67
2022/08/24 00:56:27;;;;;;;6.10;4.75;;;;;;;21.06;52.52;100656.14;1706361;81;21083;-68
2022/08/24 00:59:01;;;;;;;4.90;4.50;;;;;;;21.05;52.11;100657.73;1709993;82;21105;-67
2022/08/24 01:01:30;;;;;;;5.05;4.58;;;;;;;21.02;52.13;100653.65;1715398;81;20993;-68
2022/08/24 01:03:58;;;;;;;7.50;3.98;;;;;;;21.02;52.02;100656.88;1711897;82;21477;-69
2022/08/24 01:06:25;;;;;;;5.35;4.95;;;;;;;20.98;51.39;100650.62;1708508;82;21561;-68
2022/08/24 01:08:51;;;;;;;6.33;4.83;;;;;;;21.00;51.47;100657.12;1689206;82;21151;-68
2022/08/24 01:11:23;;;;;;;15.88;5.05;;;;;;;21.01;51.45;100654.70;1695308;83;21035;-73
2022/08/24 01:13:51;;;;;;;8.58;5.45;;;;;;;21.00;51.47;100657.95;1690245;83;21535;-68
2022/08/24 01:18:48;;;;;;;7.67;5.25;;;;;;;20.98;52.32;100653.33;1700205;83;21519;-68
2022/08/24 01:18:48;;;;;;;5.17;4.62;;;;;;;20.95;52.17;100654.36;1696964;83;21007;-67
2022/08/24 01:21:39;;;;;;;6.00;3.67;;;;;;;20.94;52.75;100661.64;1674491;83;21168;-68
2022/08/24 01:24:10;;;;;;;5.42;4.50;;;;;;;20.90;51.95;100664.57;1698356;83;21013;-68
2022/08/24 01:26:45;;;;;;;5.67;4.47;;;;;;;20.86;52.14;100659.91;1686332;83;21038;-67
2022/08/24 01:29:19;;;;;;;5.08;4.50;;;;;;;20.82;51.87;100665.01;1679138;83;21017;-69
2022/08/24 01:31:46;;;;;;;11.18;4.35;;;;;;;20.79;51.38;100666.34;1686184;83;21532;-68
2022/08/24 01:34:13;;;;;;;4.95;4.12;;;;;;;20.77;51.17;100663.03;1699092;81;21014;-68
2022/08/24 01:36:49;;;;;;;6.67;4.37;;;;;;;20.75;50.76;100670.58;1709649;82;21105;-68
2022/08/24 01:39:30;;;;;;;5.33;4.35;;;;;;;20.72;50.79;100673.81;1705581;82;21133;-68
2022/08/24 01:41:57;;;;;;;4.30;4.00;;;;;;;20.71;50.70;100676.76;1710624;82;20988;-68
2022/08/24 01:44:27;;;;;;;5.08;3.55;;;;;;;20.67;50.72;100671.01;1689294;82;21043;-68
2022/08/24 01:46:55;;;;;;;9.78;4.60;;;;;;;20.66;50.68;100675.31;1668269;84;21494;-68
2022/08/24 01:49:26;;;;;;;5.62;4.22;;;;;;;20.64;50.57;100681.52;1673627;84;21091;-67
2022/08/24 01:51:53;;;;;;;5.37;4.00;;;;;;;20.63;50.49;100679.34;1689595;81;21085;-68
2022/08/24 01:54:21;;;;;;;4.45;4.05;;;;;;;20.61;50.40;100682.84;1702515;83;21085;-69
2022/08/24 01:56:47;;;;;;;4.50;4.00;;;;;;;20.59;50.04;100681.70;1703912;83;21005;-68
2022/08/24 01:59:14;;;;;;;5.17;3.92;;;;;;;20.57;50.06;100686.54;1707804;82;21134;-68
2022/08/24 02:01:53;;;;;;;5.05;4.00;;;;;;;20.56;49.88;100688.14;1712400;83;21109;-68
2022/08/24 02:04:19;;;;;;;4.37;3.98;;;;;;;20.55;49.76;100681.06;1709551;83;21494;-70
2022/08/24 02:06:48;;;;;;;3.58;3.35;;;;;;;20.55;49.86;100686.48;1709551;83;21027;-68
2022/08/24 02:09:15;;;;;;;4.75;3.85;;;;;;;20.54;49.58;100691.63;1704918;83;21693;-68
2022/08/24 02:11:43;;;;;;;4.25;3.70;;;;;;;20.54;49.64;100691.08;1659245;82;21145;-67
2022/08/24 02:14:12;;;;;;;3.80;3.50;;;;;;;20.54;49.32;100699.75;1634862;86;21025;-69
2022/08/24 02:16:42;;;;;;;3.72;3.45;;;;;;;20.54;49.29;100701.10;1636031;86;21011;-69
2022/08/24 02:19:08;;;;;;;3.92;3.67;;;;;;;20.54;49.01;100682.95;1649261;84;21688;-68
2022/08/24 02:21:34;;;;;;;3.62;3.33;;;;;;;20.54;49.33;100694.33;1645407;85;21062;-68
2022/08/24 02:24:02;;;;;;;5.62;3.75;;;;;;;20.52;48.90;100693.22;1610488;87;21069;-68
2022/08/24 02:26:28;;;;;;;4.60;3.50;;;;;;;20.52;48.70;100692.41;1644821;86;21572;-68
2022/08/24 02:28:54;;;;;;;;;;;;;;;20.50;49.96;100695.36;1646776;86;21009;-68
2022/08/24 02:31:20;;;;;;;6.73;3.37;;;;;;;20.43;49.22;100686.02;1661268;83;20562;-68
2022/08/24 02:33:46;;;;;;;;;;;;;;;20.36;49.05;100690.80;1671143;84;21550;-68
2022/08/24 02:36:14;;;;;;;7.22;4.10;;;;;;;20.35;50.87;100687.80;1652398;85;20136;-68
2022/08/24 02:38:42;;;;;;;4.35;3.22;;;;;;;20.24;51.93;100690.03;1642557;85;21009;-67
2022/08/24 02:41:11;;;;;;;3.80;3.45;;;;;;;20.18;50.16;100691.02;1639864;85;21030;-68
2022/08/24 02:43:38;;;;;;;3.55;2.85;;;;;;;20.16;49.68;100691.80;1637044;82;21067;-67
2022/08/24 02:46:05;;;;;;;7.00;3.50;;;;;;;20.15;49.46;100686.89;1724112;83;20963;-67
2022/08/24 02:48:33;;;;;;;3.50;3.17;;;;;;;20.14;49.56;100690.68;1712523;83;21567;-69
2022/08/24 02:50:59;;;;;;;4.60;3.60;;;;;;;20.14;49.29;100688.52;1702398;82;21173;-70
2022/08/24 02:53:26;;;;;;;3.77;3.47;;;;;;;20.13;49.71;100686.86;1692487;84;20997;-68
2022/08/24 02:55:52;;;;;;;;;;;;;;;20.12;49.18;100685.23;1717929;83;20929;-68
2022/08/24 02:58:18;;;;;;;4.22;3.10;;;;;;;20.13;48.85;100694.44;1691231;83;20480;-68
2022/08/24 03:00:47;;;;;;;4.22;2.95;;;;;;;20.08;48.79;100696.23;1733794;80;21947;-68
2022/08/24 03:03:14;;;;;;;2.95;2.60;;;;;;;20.09;48.69;100695.99;1777788;80;21079;-68
2022/08/24 03:05:42;;;;;;;5.45;3.62;;;;;;;20.10;48.55;100694.94;1769318;80;21536;-68
2022/08/24 03:08:09;;;;;;;7.80;4.37;;;;;;;20.11;50.02;100697.11;1735570;79;21398;-67
2022/08/24 03:10:36;;;;;;;3.05;2.77;;;;;;;20.03;51.83;100704.55;1730575;81;21525;-69
2022/08/24 03:13:03;;;;;;;3.95;3.08;;;;;;;19.94;49.96;100706.53;1760615;79;21052;-67
2022/08/24 03:15:31;;;;;;;7.65;4.15;;;;;;;19.93;49.20;100708.42;1774009;79;21138;-68
2022/08/24 03:17:57;;;;;;;;;;;;;;;19.92;52.16;100711.37;1778013;80;21462;-68
2022/08/24 03:20:25;;;;;;;3.30;3.00;;;;;;;19.88;50.77;100712.92;1775980;80;20120;-68
2022/08/24 03:22:52;;;;;;;14.03;3.15;;;;;;;19.89;50.02;100708.63;1787140;79;21026;-69
2022/08/24 03:25:23;;;;;;;5.10;2.62;;;;;;;20.03;49.28;100708.61;1677931;80;21100;-69
2022/08/24 03:27:51;;;;;;;7.10;2.60;;;;;;;20.19;49.17;100708.88;1660154;85;21137;-68
2022/08/24 03:30:18;;;;;;;5.20;2.35;;;;;;;20.35;47.42;100711.34;1659591;85;21583;-68
2022/08/24 03:32:45;;;;;;;2.70;2.47;;;;;;;20.53;47.20;100703.51;1726007;81;21049;-68
2022/08/24 03:35:13;;;;;;;5.37;2.50;;;;;;;20.77;46.36;100709.08;1779000;79;20994;-68
2022/08/24 03:37:39;;;;;;;6.22;2.67;;;;;;;21.12;45.94;100708.52;1775147;79;21061;-67
2022/08/24 03:40:10;;;;;;;2.98;2.62;;;;;;;21.49;44.68;100707.94;1738245;79;21076;-69
2022/08/24 03:42:39;;;;;;;4.25;2.22;;;;;;;21.84;43.77;100710.81;1695618;82;21045;-69
2022/08/24 03:45:08;;;;;;;5.22;2.15;;;;;;;22.21;43.37;100706.86;1706108;81;21149;-69
2022/08/24 03:47:35;;;;;;;3.33;2.58;;;;;;;22.59;42.34;100713.74;1676208;85;21486;-71
2022/08/24 03:50:03;;;;;;;4.70;2.40;;;;;;;23.01;41.47;100712.41;1730496;81;21108;-68
2022/08/24 03:52:30;;;;;;;3.42;1.82;;;;;;;23.39;40.62;100712.38;1720379;83;21105;-67
2022/08/24 03:54:56;;;;;;;5.95;2.33;;;;;;;23.82;39.87;100718.56;1709312;82;21019;-67
2022/08/24 03:57:23;;;;;;;5.83;1.95;;;;;;;24.19;38.85;100717.02;1704622;82;21077;-67
2022/08/24 03:59:50;;;;;;;3.42;1.70;;;;;;;24.53;38.30;100720.62;1722041;81;21053;-67
2022/08/24 04:02:17;;;;;;;1.98;1.57;;;;;;;24.89;37.26;100727.41;1721519;82;21092;-67
2022/08/24 04:04:44;;;;;;;1.52;1.37;;;;;;;25.24;36.58;100722.98;1646645;82;21599;-67
2022/08/24 04:07:10;;;;;;;3.65;1.60;;;;;;;25.54;35.95;100718.00;1677883;84;21013;-67
2022/08/24 04:09:37;;;;;;;4.62;1.20;;;;;;;25.76;35.21;100718.16;1679989;84;21083;-70
2022/08/24 04:12:04;;;;;;;4.30;1.67;;;;;;;25.88;34.87;100717.30;1673875;83;21007;-67
2022/08/24 04:14:31;;;;;;;2.42;1.82;;;;;;;26.10;34.57;100714.16;1688448;83;21094;-69
2022/08/24 04:17:00;;;;;;;1.57;1.47;;;;;;;26.33;33.99;100709.09;1706837;81;21140;-70
2022/08/24 04:19:29;;;;;;;5.97;2.37;;;;;;;26.59;33.40;100718.73;1707435;84;21002;-69
2022/08/24 04:21:57;;;;;;;4.95;1.87;;;;;;;26.80;32.92;100711.19;1702458;82;21036;-68
2022/08/24 04:24:26;;;;;;;7.05;2.08;;;;;;;27.04;32.53;100715.05;1741340;81;21058;-68
2022/08/24 04:26:52;;;;;;;2.75;1.40;;;;;;;27.22;32.10;100714.31;1737793;81;21025;-68
2022/08/24 04:29:20;;;;;;;3.33;1.47;;;;;;;27.45;31.96;100707.22;1744841;81;21030;-67
2022/08/24 04:31:51;;;;;;;3.77;1.17;;;;;;;27.76;31.16;100716.40;1653599;81;21072;-70
2022/08/24 04:34:17;;;;;;;1.37;1.22;;;;;;;28.06;30.46;100714.38;1643275;86;21041;-69
2022/08/24 04:36:45;;;;;;;3.90;1.22;;;;;;;28.37;29.91;100710.61;1634484;86;21078;-69
2022/08/24 04:39:12;;;;;;;2.87;1.20;;;;;;;28.68;29.69;100715.04;1678427;82;21064;-68
2022/08/24 04:41:43;;;;;;;3.30;1.20;;;;;;;28.95;29.48;100711.28;1726456;81;22475;-68
2022/08/24 04:44:10;;;;;;;2.75;1.02;;;;;;;29.33;28.82;100714.70;1737309;81;21057;-69
2022/08/24 04:46:38;;;;;;;3.62;1.22;;;;;;;29.70;27.93;100712.81;1759017;80;21153;-68
2022/08/24 04:49:04;;;;;;;1.98;1.20;;;;;;;29.89;27.57;100708.57;1761212;81;21024;-68
2022/08/24 04:51:33;;;;;;;4.28;1.30;;;;;;;29.87;27.83;100710.25;1773012;81;21041;-68
2022/08/24 04:54:00;;;;;;;3.55;1.20;;;;;;;29.90;27.27;100704.72;1752064;81;21123;-68
2022/08/24 04:56:26;;;;;;;2.02;1.17;;;;;;;29.93;27.52;100700.52;1752120;80;21463;-68
2022/08/24 04:58:55;;;;;;;6.22;1.05;;;;;;;29.99;27.03;100703.40;1756704;80;21657;-68
2022/08/24 05:01:26;;;;;;;6.47;1.22;;;;;;;30.03;27.13;100703.86;1750290;80;21041;-67
2022/08/24 05:03:55;;;;;;;4.35;0.93;;;;;;;30.18;27.46;100706.00;1759580;81;21485;-68
2022/08/24 05:06:26;;;;;;;4.25;1.10;;;;;;;30.42;26.96;100700.20;1737559;79;21593;-72
2022/08/24 05:08:52;;;;;;;3.00;0.90;;;;;;;30.62;26.25;100704.38;1753146;80;21050;-66
2022/08/24 05:11:22;;;;;;;3.90;1.05;;;;;;;30.57;26.38;100703.12;1767531;79;21070;-68
2022/08/24 05:13:52;;;;;;;3.55;1.75;;;;;;;30.32;26.70;100708.69;1769788;79;21044;-68
2022/08/24 05:16:20;;;;;;;2.12;1.20;;;;;;;30.27;26.36;100708.23;1763863;79;21028;-69
2022/08/24 05:18:47;;;;;;;1.25;0.90;;;;;;;30.32;26.55;100697.14;1694872;81;21103;-68
2022/08/24 05:21:18;;;;;;;2.30;1.40;;;;;;;30.28;26.56;100692.00;1686662;84;20983;-69
2022/08/24 05:23:45;;;;;;;1.67;0.90;;;;;;;29.90;26.83;100703.34;1628300;83;21014;-68
2022/08/24 05:26:21;;;;;;;1.62;0.90;;;;;;;29.67;27.00;100695.59;1687826;83;21097;-69
2022/08/24 05:28:48;;;;;;;;;;;;;;;29.66;26.87;100694.75;1702462;83;21028;-67
2022/08/24 05:31:21;;;;;;;6.67;1.02;;;;;;;29.67;27.11;100701.89;1689724;82;20415;-70
2022/08/24 05:33:49;;;;;;;2.85;1.37;;;;;;;29.68;27.28;100698.58;1693888;83;20989;-67
2022/08/24 05:36:23;;;;;;;3.35;0.90;;;;;;;29.63;27.16;100694.02;1682124;83;22215;-68
2022/08/24 05:38:54;;;;;;;1.42;1.25;;;;;;;29.50;28.17;100694.28;1690607;83;21041;-71
2022/08/24 05:41:21;;;;;;;5.58;1.12;;;;;;;29.49;27.51;100693.22;1632018;83;21661;-67
2022/08/24 05:43:51;;;;;;;4.33;0.93;;;;;;;29.42;27.47;100697.77;1625427;87;21239;-74
2022/08/24 05:46:19;;;;;;;1.90;1.80;;;;;;;29.55;27.76;100694.73;1635120;84;21193;-69
2022/08/24 05:49:56;;;;;;;2.50;1.10;;;;;;;29.85;27.29;100683.65;1820619;77;22552;-68
2022/08/24 05:52:23;;;;;;;3.47;1.07;;;;;;;29.80;27.74;100687.07;1791036;79;21550;-73
2022/08/24 05:54:54;;;;;;;1.32;1.22;;;;;;;29.72;27.73;100688.59;1790711;79;21109;-70
2022/08/24 05:57:22;;;;;;;2.83;1.02;;;;;;;29.64;27.44;100684.64;1710788;81;21041;-69
2022/08/24 05:59:56;;;;;;;1.27;1.17;;;;;;;29.50;27.65;100687.98;1711990;81;21136;-70
2022/08/24 06:02:22;;;;;;;2.12;1.20;;;;;;;29.55;27.73;100701.59;1712906;84;21002;-70
2022/08/24 06:04:49;;;;;;;4.45;1.55;;;;;;;29.77;26.96;100699.50;1712060;84;20980;-69
2022/08/24 06:07:16;;;;;;;2.17;1.98;;;;;;;29.85;27.22;100699.33;1703613;82;21077;-73
2022/08/24 06:09:44;;;;;;;1.90;1.42;;;;;;;29.82;26.79;100701.31;1709430;81;21069;-69
2022/08/24 06:12:12;;;;;;;1.50;0.95;;;;;;;29.99;26.71;100706.98;1678926;81;21018;-69
2022/08/24 06:14:44;;;;;;;5.42;1.67;;;;;;;30.09;26.71;100699.86;1670658;84;21060;-69
2022/08/24 06:17:11;;;;;;;2.50;1.45;;;;;;;30.17;26.41;100696.12;1639623;83;21131;-67
2022/08/24 06:19:38;;;;;;;2.67;1.80;;;;;;;30.12;26.74;100709.44;1625776;86;21048;-69
2022/08/24 06:22:06;;;;;;;9.30;1.27;;;;;;;30.12;26.75;100712.72;1651176;84;21049;-69
2022/08/24 06:27:21;;;;;;;2.35;0.75;;;;;;;29.92;26.79;100699.72;1658934;84;21088;-69
2022/08/24 06:29:55;;;;;;;5.78;1.55;;;;;;;29.93;26.82;100712.89;1664829;83;21689;-69
2022/08/24 06:32:24;;;;;;;3.15;1.37;;;;;;;29.82;26.77;100712.30;1647359;85;21725;-70
2022/08/24 06:34:55;;;;;;;4.53;1.65;;;;;;;29.72;27.63;100708.39;1658267;83;21053;-70
2022/08/24 06:37:25;;;;;;;6.97;1.07;;;;;;;29.68;27.80;100722.73;1672626;84;21038;-70
2022/08/24 06:39:49;;;;;;;1.60;1.47;;;;;;;29.69;27.36;100721.63;1680238;81;21057;-69
2022/08/24 06:42:16;;;;;;;1.45;1.12;;;;;;;29.84;27.42;100710.08;1696144;83;21046;-69
2022/08/24 06:44:43;;;;;;;2.87;1.45;;;;;;;30.14;26.95;100714.06;1693556;83;21577;-72
2022/08/24 06:47:11;;;;;;;4.75;1.15;;;;;;;30.40;26.96;100710.70;1704579;80;21149;-71
2022/08/24 06:49:39;;;;;;;2.22;1.20;;;;;;;30.50;26.57;100720.62;1712276;82;21053;-70
2022/08/24 06:52:05;;;;;;;4.78;1.65;;;;;;;30.62;26.50;100723.63;1695890;82;21018;-71
2022/08/24 06:54:33;;;;;;;2.22;1.70;;;;;;;30.74;26.34;100725.26;1693656;82;21702;-69
2022/08/24 06:57:00;;;;;;;4.67;1.70;;;;;;;30.75;26.66;100721.36;1709148;81;21496;-70
2022/08/24 06:59:28;;;;;;;8.35;2.25;;;;;;;30.52;26.69;100726.66;1720616;81;21608;-71
2022/08/24 07:01:56;;;;;;;4.53;1.65;;;;;;;30.26;26.90;100720.37;1719663;79;21031;-70
2022/08/24 07:04:25;;;;;;;5.97;1.05;;;;;;;30.26;26.99;100729.99;1746123;80;21116;-71
2022/08/24 07:07:12;;;;;;;2.55;1.57;;;;;;;29.87;27.67;100738.30;1760102;80;21540;-70
2022/08/24 07:09:40;;;;;;;4.37;1.62;;;;;;;29.26;28.49;100733.50;1736681;81;21035;-69
2022/08/24 07:12:06;;;;;;;6.70;1.65;;;;;;;28.88;28.73;100745.98;1697161;82;21081;-70
2022/08/24 07:14:33;;;;;;;4.12;1.70;;;;;;;28.73;28.43;100736.89;1695456;82;21116;-69
2022/08/24 07:17:00;;;;;;;5.03;1.30;;;;;;;28.50;29.42;100738.63;1711357;81;21112;-70
2022/08/24 07:19:28;;;;;;;4.05;1.52;;;;;;;28.23;29.65;100734.40;1700097;84;21610;-73
2022/08/24 07:21:57;;;;;;;3.15;1.87;;;;;;;27.94;30.41;100737.55;1686952;84;21015;-68
2022/08/24 07:24:24;;;;;;;5.00;1.77;;;;;;;27.77;30.24;100744.87;1687897;83;21091;-69
2022/08/24 07:26:51;;;;;;;5.87;3.60;;;;;;;27.70;30.52;100747.70;1701077;84;21536;-69
2022/08/24 07:29:18;;;;;;;2.98;2.42;;;;;;;27.62;30.57;100738.78;1684867;84;21136;-69
2022/08/24 07:31:47;;;;;;;6.03;2.22;;;;;;;27.61;30.53;100746.16;1714052;81;21073;-71
2022/08/24 07:34:25;;;;;;;3.45;1.87;;;;;;;27.63;30.42;100740.40;1722026;82;20975;-68
2022/08/24 07:36:51;;;;;;;1.77;1.55;;;;;;;27.69;30.26;100743.33;1741380;82;20983;-72
2022/08/24 07:39:18;;;;;;;4.67;1.72;;;;;;;27.72;30.31;100738.08;1742815;82;21014;-71
2022/08/24 07:41:44;;;;;;;6.62;2.27;;;;;;;27.70;30.71;100749.88;1745923;82;21031;-71
2022/08/24 07:44:12;;;;;;;8.53;2.35;;;;;;;27.74;30.44;100747.38;1730753;80;21107;-69
2022/08/24 07:46:40;;;;;;;7.95;2.33;;;;;;;27.77;30.27;100753.08;1730050;81;21467;-70
2022/08/24 07:49:08;;;;;;;15.58;2.40;;;;;;;27.85;30.25;100743.95;1738125;81;21029;-70
2022/08/24 07:51:36;;;;;;;6.85;2.67;;;;;;;27.90;29.94;100737.08;1754772;80;21129;-70
2022/08/24 07:54:04;;;;;;;13.28;3.17;;;;;;;27.98;30.08;100732.30;1760350;80;21054;-70
2022/08/24 07:56:33;;;;;;;9.20;3.40;;;;;;;28.08;29.31;100727.22;1766611;80;20969;-72
2022/08/24 07:59:00;;;;;;;18.00;2.67;;;;;;;28.12;29.35;100730.45;1763809;80;21466;-70
2022/08/24 08:01:27;;;;;;;10.25;3.33;;;;;;;28.20;29.00;100737.19;1747586;80;21038;-73
2022/08/24 08:03:53;;;;;;;16.55;3.47;;;;;;;28.28;28.75;100724.73;1704857;82;21015;-70
2022/08/24 08:06:21;;;;;;;14.55;3.42;;;;;;;28.31;28.73;100727.70;1743284;82;21014;-70
2022/08/24 08:08:49;;;;;;;12.60;3.12;;;;;;;28.38;29.12;100730.05;1744641;80;21096;-71
2022/08/24 08:11:16;;;;;;;11.95;3.15;;;;;;;28.43;29.41;100731.91;1755919;81;21014;-71
2022/08/24 08:13:42;;;;;;;13.55;3.12;;;;;;;28.47;29.22;100726.08;1758688;81;21045;-71
2022/08/24 08:16:09;;;;;;;9.90;3.10;;;;;;;28.56;29.45;100720.73;1752351;80;21108;-71
2022/08/24 08:18:36;;;;;;;8.33;2.75;;;;;;;28.70;29.03;100733.94;1751243;80;21103;-70
2022/08/24 08:24:13;;;;;;;10.90;2.70;;;;;;;28.78;28.67;100733.23;1746252;80;21108;-70
2022/08/24 08:26:21;;;;;;;10.58;2.47;;;;;;;28.95;28.31;100745.58;1704396;82;21085;-71
2022/08/24 08:29:01;;;;;;;11.83;2.90;;;;;;;29.01;27.78;100736.13;1748317;82;21562;-69
2022/08/24 08:31:29;;;;;;;7.35;1.72;;;;;;;28.99;27.81;100730.12;1696532;82;21612;-70
2022/08/24 08:33:56;;;;;;;7.72;2.52;;;;;;;29.03;27.50;100732.55;1669239;84;20964;-70
2022/08/24 08:36:22;;;;;;;15.83;2.20;;;;;;;29.08;27.70;100730.52;1694952;84;21060;-72
2022/08/24 08:38:50;;;;;;;11.25;3.45;;;;;;;29.14;27.09;100731.80;1643814;83;21094;-69
2022/08/24 08:41:38;;;;;;;6.70;2.08;;;;;;;29.10;27.18;100730.19;1611974;86;21007;-70
2022/08/24 08:44:20;;;;;;;14.13;2.15;;;;;;;29.11;27.18;100731.27;1642153;83;21113;-69
2022/08/24 08:47:18;;;;;;;5.45;2.12;;;;;;;29.21;27.09;100722.62;1658646;85;21070;-71
2022/08/24 08:50:15;;;;;;;10.28;1.77;;;;;;;29.24;26.74;100723.39;1656928;86;21117;-70
2022/08/24 08:53:16;;;;;;;11.13;2.17;;;;;;;29.24;26.51;100724.77;1657120;85;21525;-70
2022/08/24 08:56:12;;;;;;;8.48;2.55;;;;;;;29.33;26.48;100727.59;1709694;81;21049;-71
2022/08/24 08:59:16;;;;;;;12.88;2.05;;;;;;;29.46;26.58;100721.28;1716183;81;20977;-69
2022/08/24 09:02:24;;;;;;;4.92;1.80;;;;;;;29.59;26.31;100725.14;1724676;80;21104;-70
2022/08/24 09:05:16;;;;;;;7.05;2.15;;;;;;;29.62;25.32;100719.84;1731805;80;21054;-72
2022/08/24 09:07:57;;;;;;;7.42;1.70;;;;;;;29.61;25.76;100720.98;1696476;81;21642;-70
2022/08/24 09:10:37;;;;;;;9.73;1.92;;;;;;;29.65;25.59;100723.36;1758175;80;21044;-71
2022/08/24 09:13:15;;;;;;;6.80;1.90;;;;;;;29.70;25.87;100715.02;1747696;78;21053;-70
2022/08/24 09:16:13;;;;;;;7.90;1.85;;;;;;;29.79;25.59;100717.06;1736537;80;21025;-73
2022/08/24 09:18:50;;;;;;;3.00;1.22;;;;;;;29.94;25.47;100723.58;1735062;80;21081;-68
2022/08/24 09:21:57;;;;;;;6.17;1.82;;;;;;;29.91;25.13;100722.01;1743410;80;21477;-73
2022/08/24 09:24:57;;;;;;;8.40;2.27;;;;;;;29.85;25.29;100716.62;1750729;79;21353;-69
2022/08/24 09:28:08;;;;;;;4.40;1.80;;;;;;;29.89;25.09;100706.66;1723597;81;21677;-72
2022/08/24 09:31:17;;;;;;;5.53;1.65;;;;;;;30.01;24.84;100716.30;1706086;82;21538;-71
2022/08/24 09:34:07;;;;;;;4.28;1.27;;;;;;;30.08;24.96;100711.99;1740128;79;21528;-70
2022/08/24 09:36:55;;;;;;;6.85;1.35;;;;;;;30.15;24.12;100721.16;1754247;81;21046;-70
2022/08/24 09:39:38;;;;;;;8.93;1.05;;;;;;;30.18;23.94;100715.05;1751669;81;21488;-70
2022/08/24 09:42:30;;;;;;;4.87;0.72;;;;;;;30.24;23.91;100696.50;1752389;81;21529;-71
2022/08/24 09:45:12;;;;;;;6.78;1.45;;;;;;;30.27;23.74;100702.19;1713879;83;20987;-69
2022/08/24 09:48:17;;;;;;;7.47;2.37;;;;;;;30.42;23.94;100702.41;1644311;82;21125;-71
2022/08/24 09:51:13;;;;;;;6.83;1.87;;;;;;;30.57;24.61;100700.38;1734715;80;21125;-70
2022/08/24 09:54:07;;;;;;;8.03;2.17;;;;;;;30.70;24.68;100715.98;1749992;80;21040;-70
2022/08/24 09:57:03;;;;;;;6.12;1.65;;;;;;;30.73;24.58;100702.18;1746909;80;21123;-69
2022/08/24 09:59:44;;;;;;;3.92;1.62;;;;;;;30.77;24.54;100711.42;1760486;80;20978;-68
2022/08/24 10:02:27;;;;;;;7.37;1.45;;;;;;;30.80;24.33;100709.42;1769035;79;21068;-69
2022/08/24 10:05:14;;;;;;;6.47;1.67;;;;;;;30.84;24.32;100716.72;1758801;79;21049;-69
2022/08/24 10:08:14;;;;;;;7.55;1.47;;;;;;;30.90;24.34;100694.58;1767910;79;21081;-70
2022/08/24 10:11:01;;;;;;;5.53;1.80;;;;;;;30.92;24.06;100701.98;1778270;79;21137;-69
2022/08/24 10:13:48;;;;;;;10.70;1.98;;;;;;;30.99;24.21;100705.09;1779754;79;21125;-69
2022/08/24 10:16:38;;;;;;;7.35;1.32;;;;;;;31.05;23.78;100701.06;1759540;79;21100;-73
2022/08/24 10:19:46;;;;;;;7.55;1.50;;;;;;;31.04;23.87;100700.80;1739710;79;21161;-71
2022/08/24 10:22:27;;;;;;;10.25;1.70;;;;;;;30.95;24.16;100702.16;1735026;81;21025;-70
2022/08/24 10:25:38;;;;;;;4.10;0.62;;;;;;;30.87;24.36;100687.75;1686918;82;21082;-72
2022/08/24 10:28:25;;;;;;;7.55;1.75;;;;;;;30.69;24.52;100648.34;1710450;80;21130;-69
2022/08/24 10:31:11;;;;;;;4.03;0.93;;;;;;;31.08;24.29;100699.06;1716292;81;21630;-71
2022/08/24 10:33:45;;;;;;;10.25;1.02;;;;;;;31.24;23.54;100709.86;1686989;82;21028;-69
2022/08/24 10:36:41;;;;;;;5.22;1.47;;;;;;;31.24;23.54;100709.86;1686741;83;21013;-70
2022/08/24 10:39:46;;;;;;;7.22;1.45;;;;;;;31.24;23.63;100711.24;1697791;81;21169;-69
2022/08/24 10:46:08;;;;;;;9.23;2.08;;;;;;;31.19;23.81;100704.53;1683752;83;21017;-71
2022/08/24 10:48:46;;;;;;;5.33;1.00;;;;;;;31.16;23.78;100702.97;1664781;84;22631;-69
2022/08/24 10:51:35;;;;;;;8.28;0.90;;;;;;;31.19;23.57;100714.16;1680610;85;21094;-69
2022/08/24 10:54:03;;;;;;;7.37;1.30;;;;;;;31.24;23.46;100698.85;1677794;82;21174;-69
2022/08/24 10:56:53;;;;;;;14.83;2.35;;;;;;;31.27;23.68;100695.21;1686608;84;21020;-71
2022/08/24 10:59:40;;;;;;;11.85;1.02;;;;;;;31.25;23.81;100694.18;1640696;84;21946;-71
2022/08/24 11:02:29;;;;;;;3.00;1.02;;;;;;;31.23;23.56;100697.25;1705035;83;21012;-70
2022/08/24 11:04:58;;;;;;;5.30;1.32;;;;;;;31.26;23.65;100696.36;1662307;84;21016;-71
2022/08/24 11:07:25;;;;;;;8.95;0.82;;;;;;;31.28;23.61;100698.23;1719006;80;21188;-72
2022/08/24 11:09:57;;;;;;;3.45;1.47;;;;;;;31.28;23.57;100687.21;1738367;81;21019;-70
2022/08/24 11:12:41;;;;;;;10.78;1.20;;;;;;;31.20;23.70;100676.42;1749537;80;21128;-72
2022/08/24 11:15:25;;;;;;;4.22;1.27;;;;;;;31.21;23.74;100691.25;1754587;81;21478;-71
2022/08/24 11:18:01;;;;;;;5.92;0.90;;;;;;;31.31;23.78;100679.70;1664045;82;21566;-71
2022/08/24 11:20:33;;;;;;;6.80;0.93;;;;;;;31.40;23.62;100723.19;1657474;85;21025;-69
2022/08/24 11:23:07;;;;;;;10.10;0.80;;;;;;;31.47;23.67;100710.38;1669073;81;21182;-71
2022/08/24 11:25:41;;;;;;;9.33;1.07;;;;;;;31.50;23.52;100698.15;1683290;84;21092;-70
2022/08/24 11:28:35;;;;;;;5.53;0.85;;;;;;;31.46;23.56;100701.28;1687208;84;21135;-71
2022/08/24 11:31:02;;;;;;;3.80;0.90;;;;;;;31.38;23.59;100686.36;1700616;82;21057;-70
2022/08/24 11:33:36;;;;;;;9.60;1.35;;;;;;;31.32;24.11;100684.05;1696096;83;20990;-71
2022/08/24 11:36:08;;;;;;;7.03;1.60;;;;;;;31.34;23.98;100685.92;1680154;81;21116;-71
2022/08/24 11:38:34;;;;;;;12.35;1.00;;;;;;;31.41;24.06;100672.50;1641924;86;21062;-71
2022/08/24 11:41:25;;;;;;;7.05;1.02;;;;;;;31.51;24.03;100682.42;1646118;86;21541;-70
2022/08/24 11:44:12;;;;;;;7.03;0.82;;;;;;;31.60;23.65;100708.05;1631910;86;21025;-75
2022/08/24 11:46:52;;;;;;;5.60;0.55;;;;;;;31.62;23.69;100675.47;1703536;82;21688;-71
2022/08/24 11:50:00;;;;;;;10.35;1.07;;;;;;;31.59;23.79;100670.59;1712884;83;21013;-70
2022/08/24 11:52:55;;;;;;;4.42;0.90;;;;;;;31.59;23.80;100675.56;1740846;80;21092;-69
2022/08/24 11:56:19;;;;;;;9.25;1.32;;;;;;;31.61;23.62;100684.31;1737360;82;21019;-71
2022/08/24 11:59:06;;;;;;;5.87;1.25;;;;;;;31.59;23.58;100659.03;1743715;80;21115;-69
2022/08/24 12:01:53;;;;;;;6.95;1.07;;;;;;;31.57;23.69;100678.38;1742635;80;21490;-77
2022/08/24 12:04:36;;;;;;;6.75;1.40;;;;;;;31.59;23.69;100667.30;1737610;80;21098;-71